sensor_id;sensor_type;location;lat;lon;timestamp;pressure;altitude;pressure_sealevel;temperature;humidity
69153;BME280;56261;51.580;4.578;2022-11-09T00:01:40;100568.69;;;14.07;100.00
69153;BME280;56261;51.580;4.578;2022-11-09T00:04:06;100567.44;;;14.03;100.00
69153;BME280;56261;51.580;4.578;2022-11-09T00:06:32;100575.69;;;14.08;100.00
69153;BME280;56261;51.580;4.578;2022-11-09T00:08:59;100576.31;;;14.10;100.00
69153;BME280;56261;51.580;4.578;2022-11-09T00:11:25;100570.09;;;14.03;100.00
69153;BME280;56261;51.580;4.578;2022-11-09T00:13:51;100580.19;;;14.01;100.00
69153;BME280;56261;51.580;4.578;2022-11-09T00:16:18;100571.94;;;13.96;100.00
69153;BME280;56261;51.580;4.578;2022-11-09T00:18:44;100564.72;;;13.96;100.00
69153;BME280;56261;51.580;4.578;2022-11-09T00:21:18;100567.16;;;13.91;100.00
69153;BME280;56261;51.580;4.578;2022-11-09T00:23:44;100566.88;;;13.79;100.00
69153;BME280;56261;51.580;4.578;2022-11-09T00:26:11;100553.06;;;13.76;100.00
69153;BME280;56261;51.580;4.578;2022-11-09T00:28:37;100557.19;;;13.78;100.00
69153;BME280;56261;51.580;4.578;2022-11-09T00:31:05;100557.25;;;13.91;100.00
69153;BME280;56261;51.580;4.578;2022-11-09T00:33:31;100557.56;;;13.75;100.00
69153;BME280;56261;51.580;4.578;2022-11-09T00:35:57;100564.16;;;13.73;100.00
69153;BME280;56261;51.580;4.578;2022-11-09T00:38:22;100556.94;;;13.66;100.00
69153;BME280;56261;51.580;4.578;2022-11-09T00:40:48;100567.38;;;13.61;100.00
69153;BME280;56261;51.580;4.578;2022-11-09T00:43:14;100560.81;;;13.64;100.00
69153;BME280;56261;51.580;4.578;2022-11-09T00:45:39;100563.41;;;13.50;100.00
69153;BME280;56261;51.580;4.578;2022-11-09T00:48:06;100570.31;;;13.66;100.00
69153;BME280;56261;51.580;4.578;2022-11-09T00:50:31;100559.97;;;13.63;100.00
69153;BME280;56261;51.580;4.578;2022-11-09T00:52:57;100553.16;;;13.61;100.00
69153;BME280;56261;51.580;4.578;2022-11-09T00:55:23;100559.13;;;13.56;100.00
69153;BME280;56261;51.580;4.578;2022-11-09T00:57:49;100563.09;;;13.67;100.00
69153;BME280;56261;51.580;4.578;2022-11-09T01:00:20;100564.38;;;13.43;100.00
69153;BME280;56261;51.580;4.578;2022-11-09T01:02:46;100556.22;;;13.51;100.00
69153;BME280;56261;51.580;4.578;2022-11-09T01:05:13;100559.13;;;13.56;100.00
69153;BME280;56261;51.580;4.578;2022-11-09T01:07:39;100566.28;;;13.49;100.00
69153;BME280;56261;51.580;4.578;2022-11-09T01:10:05;100557.13;;;13.65;100.00
69153;BME280;56261;51.580;4.578;2022-11-09T01:12:31;100567.84;;;13.65;100.00
69153;BME280;56261;51.580;4.578;2022-11-09T01:14:57;100571.75;;;13.62;100.00
69153;BME280;56261;51.580;4.578;2022-11-09T01:17:22;100580.00;;;13.67;100.00
69153;BME280;56261;51.580;4.578;2022-11-09T01:19:48;100585.78;;;13.64;100.00
69153;BME280;56261;51.580;4.578;2022-11-09T01:22:14;100582.69;;;13.67;100.00
69153;BME280;56261;51.580;4.578;2022-11-09T01:24:39;100588.19;;;13.59;100.00
69153;BME280;56261;51.580;4.578;2022-11-09T01:27:05;100590.06;;;13.59;100.00
69153;BME280;56261;51.580;4.578;2022-11-09T01:29:30;100603.63;;;13.57;100.00
69153;BME280;56261;51.580;4.578;2022-11-09T01:31:55;100595.22;;;13.60;100.00
69153;BME280;56261;51.580;4.578;2022-11-09T01:34:21;100597.03;;;13.53;100.00
69153;BME280;56261;51.580;4.578;2022-11-09T01:36:49;100592.00;;;13.43;100.00
69153;BME280;56261;51.580;4.578;2022-11-09T01:39:15;100580.19;;;13.66;100.00
69153;BME280;56261;51.580;4.578;2022-11-09T01:41:41;100571.09;;;13.60;100.00
69153;BME280;56261;51.580;4.578;2022-11-09T01:44:18;100562.63;;;13.57;100.00
69153;BME280;56261;51.580;4.578;2022-11-09T01:46:57;100556.28;;;13.64;100.00
69153;BME280;56261;51.580;4.578;2022-11-09T01:49:47;100547.00;;;13.60;100.00
69153;BME280;56261;51.580;4.578;2022-11-09T01:52:36;100565.69;;;13.54;100.00
69153;BME280;56261;51.580;4.578;2022-11-09T01:55:10;100554.16;;;13.53;100.00
69153;BME280;56261;51.580;4.578;2022-11-09T01:57:43;100570.28;;;13.60;100.00
69153;BME280;56261;51.580;4.578;2022-11-09T02:00:12;100582.56;;;13.47;100.00
69153;BME280;56261;51.580;4.578;2022-11-09T02:02:42;100574.16;;;13.57;100.00
69153;BME280;56261;51.580;4.578;2022-11-09T02:05:11;100568.75;;;13.50;100.00
69153;BME280;56261;51.580;4.578;2022-11-09T02:07:39;100568.66;;;13.37;100.00
69153;BME280;56261;51.580;4.578;2022-11-09T02:13:10;100583.31;;;13.41;100.00
69153;BME280;56261;51.580;4.578;2022-11-09T02:15:37;100594.91;;;13.42;100.00
69153;BME280;56261;51.580;4.578;2022-11-09T02:18:03;100583.72;;;13.38;100.00
69153;BME280;56261;51.580;4.578;2022-11-09T02:20:29;100574.06;;;13.44;100.00
69153;BME280;56261;51.580;4.578;2022-11-09T02:22:54;100571.25;;;13.52;100.00
69153;BME280;56261;51.580;4.578;2022-11-09T02:25:20;100580.47;;;13.43;100.00
69153;BME280;56261;51.580;4.578;2022-11-09T02:27:46;100590.53;;;13.41;100.00
69153;BME280;56261;51.580;4.578;2022-11-09T02:30:12;100585.22;;;13.47;100.00
69153;BME280;56261;51.580;4.578;2022-11-09T02:32:39;100571.19;;;13.45;100.00
69153;BME280;56261;51.580;4.578;2022-11-09T02:35:04;100573.00;;;13.38;100.00
69153;BME280;56261;51.580;4.578;2022-11-09T02:37:34;100572.56;;;13.35;100.00
69153;BME280;56261;51.580;4.578;2022-11-09T02:40:05;100572.81;;;13.18;100.00
69153;BME280;56261;51.580;4.578;2022-11-09T02:42:31;100564.97;;;13.17;100.00
69153;BME280;56261;51.580;4.578;2022-11-09T02:44:58;100571.19;;;13.17;100.00
69153;BME280;56261;51.580;4.578;2022-11-09T02:47:23;100569.31;;;13.18;100.00
69153;BME280;56261;51.580;4.578;2022-11-09T02:49:49;100577.31;;;13.11;100.00
69153;BME280;56261;51.580;4.578;2022-11-09T02:52:15;100582.31;;;12.99;100.00
69153;BME280;56261;51.580;4.578;2022-11-09T02:54:41;100580.50;;;13.00;100.00
69153;BME280;56261;51.580;4.578;2022-11-09T02:57:06;100593.41;;;12.96;100.00
69153;BME280;56261;51.580;4.578;2022-11-09T02:59:32;100594.56;;;12.87;100.00
69153;BME280;56261;51.580;4.578;2022-11-09T03:01:57;100599.34;;;12.92;100.00
69153;BME280;56261;51.580;4.578;2022-11-09T03:04:23;100598.34;;;12.93;100.00
69153;BME280;56261;51.580;4.578;2022-11-09T03:06:48;100608.72;;;12.81;100.00
69153;BME280;56261;51.580;4.578;2022-11-09T03:09:14;100602.47;;;12.74;100.00
69153;BME280;56261;51.580;4.578;2022-11-09T03:11:40;100600.81;;;12.73;100.00
69153;BME280;56261;51.580;4.578;2022-11-09T03:14:06;100596.94;;;12.75;100.00
69153;BME280;56261;51.580;4.578;2022-11-09T03:16:38;100618.91;;;12.71;100.00
69153;BME280;56261;51.580;4.578;2022-11-09T03:19:03;100614.19;;;12.73;100.00
69153;BME280;56261;51.580;4.578;2022-11-09T03:21:29;100628.91;;;12.62;100.00
69153;BME280;56261;51.580;4.578;2022-11-09T03:23:54;100635.53;;;12.66;100.00
69153;BME280;56261;51.580;4.578;2022-11-09T03:26:20;100631.03;;;12.52;100.00
69153;BME280;56261;51.580;4.578;2022-11-09T03:28:46;100644.22;;;12.53;100.00
69153;BME280;56261;51.580;4.578;2022-11-09T03:31:12;100638.06;;;12.53;100.00
69153;BME280;56261;51.580;4.578;2022-11-09T03:33:37;100648.19;;;12.57;100.00
69153;BME280;56261;51.580;4.578;2022-11-09T03:36:03;100649.84;;;12.58;100.00
69153;BME280;56261;51.580;4.578;2022-11-09T03:38:29;100653.56;;;12.42;100.00
69153;BME280;56261;51.580;4.578;2022-11-09T03:40:54;100659.72;;;12.43;100.00
69153;BME280;56261;51.580;4.578;2022-11-09T03:43:20;100653.38;;;12.44;100.00
69153;BME280;56261;51.580;4.578;2022-11-09T03:45:46;100660.13;;;12.40;100.00
69153;BME280;56261;51.580;4.578;2022-11-09T03:48:12;100665.09;;;12.28;100.00
69153;BME280;56261;51.580;4.578;2022-11-09T03:50:37;100655.41;;;12.27;100.00
69153;BME280;56261;51.580;4.578;2022-11-09T03:53:05;100669.03;;;12.32;100.00
69153;BME280;56261;51.580;4.578;2022-11-09T03:55:31;100671.28;;;12.29;100.00
69153;BME280;56261;51.580;4.578;2022-11-09T03:57:56;100682.97;;;12.28;100.00
69153;BME280;56261;51.580;4.578;2022-11-09T04:00:22;100683.75;;;12.21;100.00
69153;BME280;56261;51.580;4.578;2022-11-09T04:02:47;100690.91;;;12.21;100.00
69153;BME280;56261;51.580;4.578;2022-11-09T04:05:13;100685.31;;;12.31;100.00
69153;BME280;56261;51.580;4.578;2022-11-09T04:07:40;100683.34;;;12.24;100.00
69153;BME280;56261;51.580;4.578;2022-11-09T04:10:06;100679.19;;;12.37;100.00
69153;BME280;56261;51.580;4.578;2022-11-09T04:12:31;100692.94;;;12.34;100.00
69153;BME280;56261;51.580;4.578;2022-11-09T04:14:57;100693.56;;;12.21;100.00
69153;BME280;56261;51.580;4.578;2022-11-09T04:17:22;100689.53;;;12.25;100.00
69153;BME280;56261;51.580;4.578;2022-11-09T04:19:47;100693.31;;;12.31;100.00
69153;BME280;56261;51.580;4.578;2022-11-09T04:22:13;100684.56;;;12.22;100.00
69153;BME280;56261;51.580;4.578;2022-11-09T04:24:38;100694.31;;;12.30;100.00
69153;BME280;56261;51.580;4.578;2022-11-09T04:27:04;100694.63;;;12.35;100.00
69153;BME280;56261;51.580;4.578;2022-11-09T04:29:29;100693.75;;;12.34;100.00
69153;BME280;56261;51.580;4.578;2022-11-09T04:31:55;100701.03;;;12.25;100.00
69153;BME280;56261;51.580;4.578;2022-11-09T04:34:20;100689.53;;;12.25;100.00
69153;BME280;56261;51.580;4.578;2022-11-09T04:36:45;100701.63;;;12.36;100.00
69153;BME280;56261;51.580;4.578;2022-11-09T04:39:11;100690.09;;;12.35;100.00
69153;BME280;56261;51.580;4.578;2022-11-09T04:41:36;100700.59;;;12.22;100.00
69153;BME280;56261;51.580;4.578;2022-11-09T04:44:02;100695.34;;;12.29;100.00
69153;BME280;56261;51.580;4.578;2022-11-09T04:46:28;100702.25;;;12.23;100.00
69153;BME280;56261;51.580;4.578;2022-11-09T04:48:53;100692.03;;;12.27;100.00
69153;BME280;56261;51.580;4.578;2022-11-09T04:51:19;100692.31;;;12.17;100.00
69153;BME280;56261;51.580;4.578;2022-11-09T04:53:44;100699.22;;;12.11;100.00
69153;BME280;56261;51.580;4.578;2022-11-09T04:56:10;100687.97;;;12.16;100.00
69153;BME280;56261;51.580;4.578;2022-11-09T04:58:36;100701.16;;;12.17;100.00
69153;BME280;56261;51.580;4.578;2022-11-09T05:01:10;100699.13;;;12.19;100.00
69153;BME280;56261;51.580;4.578;2022-11-09T05:03:36;100698.09;;;12.20;100.00
69153;BME280;56261;51.580;4.578;2022-11-09T05:06:02;100695.91;;;12.24;100.00
69153;BME280;56261;51.580;4.578;2022-11-09T05:08:51;100694.97;;;12.17;100.00
69153;BME280;56261;51.580;4.578;2022-11-09T05:11:17;100696.34;;;12.13;100.00
69153;BME280;56261;51.580;4.578;2022-11-09T05:13:42;100698.38;;;12.11;100.00
69153;BME280;56261;51.580;4.578;2022-11-09T05:16:07;100689.72;;;12.23;100.00
69153;BME280;56261;51.580;4.578;2022-11-09T05:18:33;100688.50;;;12.11;100.00
69153;BME280;56261;51.580;4.578;2022-11-09T05:20:59;100689.00;;;12.15;100.00
69153;BME280;56261;51.580;4.578;2022-11-09T05:23:25;100692.59;;;12.22;100.00
69153;BME280;56261;51.580;4.578;2022-11-09T05:26:09;100689.81;;;12.15;100.00
69153;BME280;56261;51.580;4.578;2022-11-09T05:28:35;100691.19;;;12.26;100.00
69153;BME280;56261;51.580;4.578;2022-11-09T05:31:00;100700.50;;;12.15;100.00
69153;BME280;56261;51.580;4.578;2022-11-09T05:33:25;100686.31;;;12.15;100.00
69153;BME280;56261;51.580;4.578;2022-11-09T05:35:53;100695.69;;;12.25;100.00
69153;BME280;56261;51.580;4.578;2022-11-09T05:38:19;100694.22;;;12.23;100.00
69153;BME280;56261;51.580;4.578;2022-11-09T05:40:49;100695.81;;;12.17;100.00
69153;BME280;56261;51.580;4.578;2022-11-09T05:43:15;100696.81;;;12.16;100.00
69153;BME280;56261;51.580;4.578;2022-11-09T05:45:41;100701.84;;;11.96;100.00
69153;BME280;56261;51.580;4.578;2022-11-09T05:48:07;100700.69;;;12.14;100.00
69153;BME280;56261;51.580;4.578;2022-11-09T05:50:33;100699.09;;;12.04;100.00
69153;BME280;56261;51.580;4.578;2022-11-09T05:52:59;100700.69;;;11.99;100.00
69153;BME280;56261;51.580;4.578;2022-11-09T05:55:25;100694.59;;;12.05;100.00
69153;BME280;56261;51.580;4.578;2022-11-09T05:57:51;100685.38;;;12.08;100.00
69153;BME280;56261;51.580;4.578;2022-11-09T06:00:16;100701.72;;;12.13;100.00
69153;BME280;56261;51.580;4.578;2022-11-09T06:02:42;100702.59;;;12.05;100.00
69153;BME280;56261;51.580;4.578;2022-11-09T06:05:07;100687.13;;;12.00;100.00
69153;BME280;56261;51.580;4.578;2022-11-09T06:07:33;100706.19;;;11.97;100.00
69153;BME280;56261;51.580;4.578;2022-11-09T06:09:58;100710.06;;;11.95;100.00
69153;BME280;56261;51.580;4.578;2022-11-09T06:12:24;100712.44;;;11.90;100.00
69153;BME280;56261;51.580;4.578;2022-11-09T06:14:49;100717.34;;;12.01;100.00
69153;BME280;56261;51.580;4.578;2022-11-09T06:17:14;100717.81;;;12.04;100.00
69153;BME280;56261;51.580;4.578;2022-11-09T06:19:40;100713.28;;;12.05;100.00
69153;BME280;56261;51.580;4.578;2022-11-09T06:22:05;100707.41;;;12.10;100.00
69153;BME280;56261;51.580;4.578;2022-11-09T06:24:31;100704.53;;;11.96;100.00
69153;BME280;56261;51.580;4.578;2022-11-09T06:26:56;100711.28;;;11.92;100.00
69153;BME280;56261;51.580;4.578;2022-11-09T06:29:21;100709.06;;;12.11;100.00
69153;BME280;56261;51.580;4.578;2022-11-09T06:31:47;100712.19;;;12.14;100.00
69153;BME280;56261;51.580;4.578;2022-11-09T06:34:14;100714.44;;;12.11;100.00
69153;BME280;56261;51.580;4.578;2022-11-09T06:36:39;100716.16;;;12.18;100.00
69153;BME280;56261;51.580;4.578;2022-11-09T06:39:04;100710.63;;;12.05;100.00
69153;BME280;56261;51.580;4.578;2022-11-09T06:41:32;100722.78;;;12.08;100.00
69153;BME280;56261;51.580;4.578;2022-11-09T06:43:58;100729.09;;;12.15;100.00
69153;BME280;56261;51.580;4.578;2022-11-09T06:46:23;100726.75;;;12.12;100.00
69153;BME280;56261;51.580;4.578;2022-11-09T06:48:48;100728.81;;;12.24;100.00
69153;BME280;56261;51.580;4.578;2022-11-09T06:51:14;100729.19;;;12.21;100.00
69153;BME280;56261;51.580;4.578;2022-11-09T06:53:39;100729.53;;;12.18;100.00
69153;BME280;56261;51.580;4.578;2022-11-09T06:56:06;100733.41;;;12.16;100.00
69153;BME280;56261;51.580;4.578;2022-11-09T06:58:31;100737.88;;;12.23;100.00
69153;BME280;56261;51.580;4.578;2022-11-09T07:00:57;100732.53;;;12.23;100.00
69153;BME280;56261;51.580;4.578;2022-11-09T07:03:23;100723.38;;;12.18;100.00
69153;BME280;56261;51.580;4.578;2022-11-09T07:05:50;100730.00;;;12.22;100.00
69153;BME280;56261;51.580;4.578;2022-11-09T07:08:16;100742.63;;;12.13;100.00
69153;BME280;56261;51.580;4.578;2022-11-09T07:10:43;100734.06;;;12.18;100.00
69153;BME280;56261;51.580;4.578;2022-11-09T07:13:09;100744.94;;;12.16;100.00
69153;BME280;56261;51.580;4.578;2022-11-09T07:15:35;100736.47;;;12.13;100.00
69153;BME280;56261;51.580;4.578;2022-11-09T07:18:04;100732.13;;;12.12;100.00
69153;BME280;56261;51.580;4.578;2022-11-09T07:20:30;100738.66;;;12.09;100.00
69153;BME280;56261;51.580;4.578;2022-11-09T07:22:55;100740.44;;;12.17;100.00
69153;BME280;56261;51.580;4.578;2022-11-09T07:25:21;100745.84;;;12.09;100.00
69153;BME280;56261;51.580;4.578;2022-11-09T07:27:46;100745.69;;;12.10;100.00
69153;BME280;56261;51.580;4.578;2022-11-09T07:30:13;100751.09;;;12.02;100.00
69153;BME280;56261;51.580;4.578;2022-11-09T07:32:39;100760.16;;;12.16;100.00
69153;BME280;56261;51.580;4.578;2022-11-09T07:35:05;100756.72;;;12.07;100.00
69153;BME280;56261;51.580;4.578;2022-11-09T07:37:31;100761.94;;;12.23;100.00
69153;BME280;56261;51.580;4.578;2022-11-09T07:39:57;100765.41;;;12.09;100.00
69153;BME280;56261;51.580;4.578;2022-11-09T07:42:23;100761.41;;;12.05;100.00
69153;BME280;56261;51.580;4.578;2022-11-09T07:44:49;100759.78;;;12.04;100.00
69153;BME280;56261;51.580;4.578;2022-11-09T07:47:16;100773.25;;;12.11;100.00
69153;BME280;56261;51.580;4.578;2022-11-09T07:49:42;100762.06;;;12.07;100.00
69153;BME280;56261;51.580;4.578;2022-11-09T07:52:07;100759.94;;;12.02;100.00
69153;BME280;56261;51.580;4.578;2022-11-09T07:54:32;100769.25;;;12.07;100.00
69153;BME280;56261;51.580;4.578;2022-11-09T07:56:58;100769.84;;;12.17;100.00
69153;BME280;56261;51.580;4.578;2022-11-09T07:59:23;100777.13;;;12.08;100.00
69153;BME280;56261;51.580;4.578;2022-11-09T08:01:48;100769.53;;;12.12;100.00
69153;BME280;56261;51.580;4.578;2022-11-09T08:04:14;100772.75;;;12.07;100.00
69153;BME280;56261;51.580;4.578;2022-11-09T08:06:39;100790.03;;;12.19;100.00
69153;BME280;56261;51.580;4.578;2022-11-09T08:09:04;100781.91;;;12.28;100.00
69153;BME280;56261;51.580;4.578;2022-11-09T08:11:30;100781.75;;;12.29;100.00
69153;BME280;56261;51.580;4.578;2022-11-09T08:13:55;100782.78;;;12.43;100.00
69153;BME280;56261;51.580;4.578;2022-11-09T08:16:21;100790.53;;;12.53;100.00
69153;BME280;56261;51.580;4.578;2022-11-09T08:18:48;100787.66;;;12.54;100.00
69153;BME280;56261;51.580;4.578;2022-11-09T08:21:14;100784.00;;;12.55;100.00
69153;BME280;56261;51.580;4.578;2022-11-09T08:23:39;100793.47;;;12.43;100.00
69153;BME280;56261;51.580;4.578;2022-11-09T08:26:09;100800.03;;;12.55;100.00
69153;BME280;56261;51.580;4.578;2022-11-09T08:28:35;100798.38;;;12.69;100.00
69153;BME280;56261;51.580;4.578;2022-11-09T08:31:05;100794.50;;;12.72;100.00
69153;BME280;56261;51.580;4.578;2022-11-09T08:33:35;100806.97;;;12.79;100.00
69153;BME280;56261;51.580;4.578;2022-11-09T08:36:00;100802.06;;;12.83;100.00
69153;BME280;56261;51.580;4.578;2022-11-09T08:38:26;100802.44;;;12.80;100.00
69153;BME280;56261;51.580;4.578;2022-11-09T08:40:57;100799.84;;;12.72;100.00
69153;BME280;56261;51.580;4.578;2022-11-09T08:43:23;100807.59;;;12.96;100.00
69153;BME280;56261;51.580;4.578;2022-11-09T08:45:48;100800.84;;;13.00;100.00
69153;BME280;56261;51.580;4.578;2022-11-09T08:48:14;100810.06;;;13.13;100.00
69153;BME280;56261;51.580;4.578;2022-11-09T08:50:39;100805.66;;;12.90;100.00
69153;BME280;56261;51.580;4.578;2022-11-09T08:53:05;100803.78;;;13.05;100.00
69153;BME280;56261;51.580;4.578;2022-11-09T08:55:30;100808.97;;;13.22;100.00
69153;BME280;56261;51.580;4.578;2022-11-09T08:57:58;100808.13;;;13.36;100.00
69153;BME280;56261;51.580;4.578;2022-11-09T09:00:24;100813.09;;;13.24;100.00
69153;BME280;56261;51.580;4.578;2022-11-09T09:02:49;100819.50;;;13.60;100.00
69153;BME280;56261;51.580;4.578;2022-11-09T09:05:15;100824.72;;;13.46;100.00
69153;BME280;56261;51.580;4.578;2022-11-09T09:07:41;100834.00;;;13.29;100.00
69153;BME280;56261;51.580;4.578;2022-11-09T09:10:07;100820.38;;;13.45;100.00
69153;BME280;56261;51.580;4.578;2022-11-09T09:12:32;100815.41;;;13.42;100.00
69153;BME280;56261;51.580;4.578;2022-11-09T09:14:58;100811.47;;;13.08;100.00
69153;BME280;56261;51.580;4.578;2022-11-09T09:17:23;100825.56;;;13.32;100.00
69153;BME280;56261;51.580;4.578;2022-11-09T09:19:49;100815.31;;;13.36;100.00
69153;BME280;56261;51.580;4.578;2022-11-09T09:22:14;100817.16;;;13.20;100.00
69153;BME280;56261;51.580;4.578;2022-11-09T09:24:40;100809.31;;;13.19;100.00
69153;BME280;56261;51.580;4.578;2022-11-09T09:27:05;100824.22;;;13.06;100.00
69153;BME280;56261;51.580;4.578;2022-11-09T09:29:30;100820.41;;;13.16;100.00
69153;BME280;56261;51.580;4.578;2022-11-09T09:31:56;100838.06;;;12.95;100.00
69153;BME280;56261;51.580;4.578;2022-11-09T09:34:21;100837.22;;;13.09;100.00
69153;BME280;56261;51.580;4.578;2022-11-09T09:36:46;100831.03;;;13.09;100.00
69153;BME280;56261;51.580;4.578;2022-11-09T09:39:12;100841.53;;;13.25;100.00
69153;BME280;56261;51.580;4.578;2022-11-09T09:41:59;100845.34;;;13.16;100.00
69153;BME280;56261;51.580;4.578;2022-11-09T09:44:55;100840.44;;;13.35;100.00
69153;BME280;56261;51.580;4.578;2022-11-09T09:50:11;100852.47;;;13.24;100.00
69153;BME280;56261;51.580;4.578;2022-11-09T09:52:43;100863.78;;;13.26;100.00
69153;BME280;56261;51.580;4.578;2022-11-09T09:55:35;100869.16;;;13.26;100.00
69153;BME280;56261;51.580;4.578;2022-11-09T09:58:06;100880.53;;;13.28;100.00
69153;BME280;56261;51.580;4.578;2022-11-09T10:00:35;100879.34;;;13.16;100.00
69153;BME280;56261;51.580;4.578;2022-11-09T10:03:03;100878.59;;;13.22;100.00
69153;BME280;56261;51.580;4.578;2022-11-09T10:05:57;100887.91;;;13.26;100.00
69153;BME280;56261;51.580;4.578;2022-11-09T10:08:46;100893.16;;;13.19;100.00
69153;BME280;56261;51.580;4.578;2022-11-09T10:20:35;100909.03;;;13.06;100.00
69153;BME280;56261;51.580;4.578;2022-11-09T10:25:45;100904.72;;;13.20;100.00
69153;BME280;56261;51.580;4.578;2022-11-09T10:28:15;100907.41;;;13.35;100.00
69153;BME280;56261;51.580;4.578;2022-11-09T10:30:41;100905.66;;;13.42;100.00
69153;BME280;56261;51.580;4.578;2022-11-09T10:35:51;100896.69;;;13.49;100.00
69153;BME280;56261;51.580;4.578;2022-11-09T10:38:22;100898.13;;;13.67;100.00
69153;BME280;56261;51.580;4.578;2022-11-09T10:41:14;100897.78;;;13.91;100.00
69153;BME280;56261;51.580;4.578;2022-11-09T10:43:41;100899.34;;;13.86;100.00
69153;BME280;56261;51.580;4.578;2022-11-09T10:46:07;100907.25;;;13.73;100.00
69153;BME280;56261;51.580;4.578;2022-11-09T10:48:36;100903.84;;;13.64;100.00
69153;BME280;56261;51.580;4.578;2022-11-09T10:51:02;100910.56;;;13.38;100.00
69153;BME280;56261;51.580;4.578;2022-11-09T10:53:30;100936.13;;;13.11;100.00
69153;BME280;56261;51.580;4.578;2022-11-09T10:58:51;100924.06;;;12.62;100.00
69153;BME280;56261;51.580;4.578;2022-11-09T11:01:22;100926.91;;;12.61;100.00
69153;BME280;56261;51.580;4.578;2022-11-09T11:03:52;100928.53;;;12.47;100.00
69153;BME280;56261;51.580;4.578;2022-11-09T11:06:26;100928.63;;;12.54;100.00
69153;BME280;56261;51.580;4.578;2022-11-09T11:09:14;100909.53;;;12.42;100.00
69153;BME280;56261;51.580;4.578;2022-11-09T11:11:40;100910.44;;;12.49;100.00
69153;BME280;56261;51.580;4.578;2022-11-09T11:16:53;100880.31;;;12.55;100.00
69153;BME280;56261;51.580;4.578;2022-11-09T11:24:53;100881.97;;;12.56;100.00
69153;BME280;56261;51.580;4.578;2022-11-09T11:32:31;100893.81;;;12.92;100.00
69153;BME280;56261;51.580;4.578;2022-11-09T11:34:56;100896.41;;;13.15;100.00
69153;BME280;56261;51.580;4.578;2022-11-09T11:37:38;100902.13;;;12.97;100.00
69153;BME280;56261;51.580;4.578;2022-11-09T11:43:43;100901.94;;;12.98;100.00
69153;BME280;56261;51.580;4.578;2022-11-09T11:46:09;100897.16;;;12.94;100.00
69153;BME280;56261;51.580;4.578;2022-11-09T11:51:18;100905.13;;;13.32;100.00
69153;BME280;56261;51.580;4.578;2022-11-09T12:02:04;100901.78;;;13.44;100.00
69153;BME280;56261;51.580;4.578;2022-11-09T12:10:19;100909.97;;;13.58;100.00
69153;BME280;56261;51.580;4.578;2022-11-09T12:12:49;100921.44;;;13.52;100.00
69153;BME280;56261;51.580;4.578;2022-11-09T12:20:31;100917.91;;;13.66;100.00
69153;BME280;56261;51.580;4.578;2022-11-09T12:25:49;100922.34;;;13.74;100.00
69153;BME280;56261;51.580;4.578;2022-11-09T12:31:18;100929.66;;;13.65;100.00
69153;BME280;56261;51.580;4.578;2022-11-09T12:33:51;100933.63;;;13.69;100.00
69153;BME280;56261;51.580;4.578;2022-11-09T12:36:28;100925.41;;;13.56;100.00
69153;BME280;56261;51.580;4.578;2022-11-09T12:41:41;100929.88;;;13.48;100.00
69153;BME280;56261;51.580;4.578;2022-11-09T12:47:23;100928.56;;;13.44;100.00
69153;BME280;56261;51.580;4.578;2022-11-09T12:49:51;100938.81;;;13.56;100.00
69153;BME280;56261;51.580;4.578;2022-11-09T12:52:21;100939.63;;;13.56;100.00
69153;BME280;56261;51.580;4.578;2022-11-09T12:54:52;100937.19;;;13.40;100.00
69153;BME280;56261;51.580;4.578;2022-11-09T12:57:23;100931.53;;;13.35;100.00
69153;BME280;56261;51.580;4.578;2022-11-09T12:59:54;100941.31;;;13.42;100.00
69153;BME280;56261;51.580;4.578;2022-11-09T13:02:34;100945.25;;;13.61;100.00
69153;BME280;56261;51.580;4.578;2022-11-09T13:05:04;100946.63;;;13.72;100.00
69153;BME280;56261;51.580;4.578;2022-11-09T13:07:47;100943.88;;;13.65;100.00
69153;BME280;56261;51.580;4.578;2022-11-09T13:10:32;100951.06;;;13.80;100.00
69153;BME280;56261;51.580;4.578;2022-11-09T13:13:21;100942.66;;;13.83;100.00
69153;BME280;56261;51.580;4.578;2022-11-09T13:23:53;100956.63;;;13.78;100.00
69153;BME280;56261;51.580;4.578;2022-11-09T13:29:32;100972.16;;;13.68;100.00
69153;BME280;56261;51.580;4.578;2022-11-09T13:34:45;100964.75;;;13.70;100.00
69153;BME280;56261;51.580;4.578;2022-11-09T13:45:35;100987.41;;;13.82;100.00
69153;BME280;56261;51.580;4.578;2022-11-09T13:48:02;100983.88;;;13.82;100.00
69153;BME280;56261;51.580;4.578;2022-11-09T13:50:30;100991.38;;;13.86;100.00
69153;BME280;56261;51.580;4.578;2022-11-09T13:53:00;100999.69;;;13.91;100.00
69153;BME280;56261;51.580;4.578;2022-11-09T13:55:37;100995.97;;;13.93;100.00
69153;BME280;56261;51.580;4.578;2022-11-09T13:58:11;101009.28;;;13.86;100.00
69153;BME280;56261;51.580;4.578;2022-11-09T14:00:44;101009.28;;;13.86;100.00
69153;BME280;56261;51.580;4.578;2022-11-09T14:03:19;101006.72;;;13.78;100.00
69153;BME280;56261;51.580;4.578;2022-11-09T14:05:49;101019.66;;;13.89;100.00
69153;BME280;56261;51.580;4.578;2022-11-09T14:08:34;101014.28;;;13.89;100.00
69153;BME280;56261;51.580;4.578;2022-11-09T14:21:50;101034.38;;;13.78;100.00
69153;BME280;56261;51.580;4.578;2022-11-09T14:24:21;101027.88;;;13.87;100.00
69153;BME280;56261;51.580;4.578;2022-11-09T14:32:32;101049.63;;;13.63;100.00
69153;BME280;56261;51.580;4.578;2022-11-09T14:35:20;101041.56;;;13.63;100.00
69153;BME280;56261;51.580;4.578;2022-11-09T14:37:50;101049.25;;;13.81;100.00